createdAt,value
2023-05-25T00:02:18.346Z,20.10
2023-05-25T00:04:48.382Z,19.90
2023-05-25T00:07:16.138Z,20.00
2023-05-25T00:09:44.402Z,19.90
2023-05-25T00:12:11.102Z,19.90
2023-05-25T00:14:37.683Z,19.90
2023-05-25T00:17:04.523Z,19.90
2023-05-25T00:19:32.501Z,19.90
2023-05-25T00:22:02.196Z,19.80
2023-05-25T00:24:30.034Z,19.80
2023-05-25T00:26:57.302Z,19.80
2023-05-25T00:29:24.648Z,19.90
2023-05-25T00:31:51.580Z,19.90
2023-05-25T00:34:24.734Z,20.20
2023-05-25T00:36:51.569Z,19.90
2023-05-25T00:39:19.868Z,19.90
2023-05-25T00:41:47.156Z,19.90
2023-05-25T00:44:21.558Z,19.90
2023-05-25T00:46:50.298Z,19.90
2023-05-25T00:49:21.107Z,20.00
2023-05-25T00:51:47.979Z,19.90
2023-05-25T00:54:15.273Z,19.80
2023-05-25T00:56:51.480Z,19.80
2023-05-25T00:59:28.402Z,19.80
2023-05-25T01:01:55.438Z,19.80
2023-05-25T01:04:23.091Z,19.80
2023-05-25T01:06:50.597Z,19.80
2023-05-25T01:09:19.046Z,19.80
2023-05-25T01:11:49.182Z,20.10
2023-05-25T01:14:18.535Z,19.80
2023-05-25T01:16:45.239Z,19.90
2023-05-25T01:19:12.722Z,20.00
2023-05-25T01:21:46.153Z,19.90
2023-05-25T01:24:22.492Z,19.90
2023-05-25T01:26:58.125Z,19.90
2023-05-25T01:29:26.328Z,19.90
2023-05-25T01:31:54.914Z,19.90
2023-05-25T01:34:23.015Z,19.70
2023-05-25T01:36:50.958Z,19.80
2023-05-25T01:39:20.626Z,19.80
2023-05-25T01:41:47.216Z,19.80
2023-05-25T01:44:14.171Z,19.80
2023-05-25T01:46:41.413Z,19.80
2023-05-25T01:49:20.087Z,19.90
2023-05-25T01:52:05.485Z,19.80
2023-05-25T01:54:36.698Z,19.80
2023-05-25T01:57:06.549Z,20.00
2023-05-25T01:59:34.041Z,19.90
2023-05-25T02:02:00.870Z,20.20
2023-05-25T02:04:27.989Z,19.90
2023-05-25T02:06:54.613Z,19.90
2023-05-25T02:09:21.351Z,19.90
2023-05-25T02:11:48.740Z,19.80
2023-05-25T02:14:16.041Z,19.90
2023-05-25T02:16:42.763Z,19.80
2023-05-25T02:19:10.822Z,20.20
2023-05-25T02:21:38.216Z,19.80
2023-05-25T02:24:04.947Z,19.80
2023-05-25T02:26:31.598Z,19.80
2023-05-25T02:28:58.220Z,19.80
2023-05-25T02:31:24.851Z,19.90
2023-05-25T02:33:51.513Z,20.30
2023-05-25T02:36:18.197Z,20.00
2023-05-25T02:38:45.476Z,19.80
2023-05-25T02:41:12.108Z,20.00
2023-05-25T02:43:39.279Z,19.90
2023-05-25T02:46:06.096Z,19.90
2023-05-25T02:48:32.759Z,19.90
2023-05-25T02:50:59.357Z,19.80
2023-05-25T02:53:26.016Z,19.90
2023-05-25T02:55:52.840Z,19.90
2023-05-25T02:58:19.452Z,19.80
2023-05-25T03:00:46.790Z,19.80
2023-05-25T03:03:13.509Z,19.70
2023-05-25T03:05:40.133Z,19.80
2023-05-25T03:08:06.794Z,20.20
2023-05-25T03:10:34.009Z,20.10
2023-05-25T03:13:00.924Z,19.90
2023-05-25T03:15:27.547Z,20.00
2023-05-25T03:17:56.809Z,19.90
2023-05-25T03:20:24.839Z,19.90
2023-05-25T03:22:51.565Z,20.00
2023-05-25T03:25:18.572Z,20.00
2023-05-25T03:27:45.431Z,20.30
2023-05-25T03:30:12.551Z,20.00
2023-05-25T03:32:39.195Z,20.00
2023-05-25T03:35:06.123Z,20.10
2023-05-25T03:37:33.250Z,20.00
2023-05-25T03:39:59.853Z,20.10
2023-05-25T03:42:26.438Z,20.50
2023-05-25T03:44:53.087Z,19.90
2023-05-25T03:47:19.715Z,19.90
2023-05-25T03:49:46.543Z,19.80
2023-05-25T03:52:13.169Z,20.00
2023-05-25T03:54:39.799Z,20.00
2023-05-25T03:57:12.504Z,19.90
2023-05-25T03:59:39.103Z,19.80
2023-05-25T04:02:05.892Z,19.80
2023-05-25T04:04:32.592Z,19.90
2023-05-25T04:06:59.221Z,19.90
2023-05-25T04:09:26.067Z,19.90
2023-05-25T04:11:53.419Z,20.20
2023-05-25T04:14:21.174Z,19.90
2023-05-25T04:16:47.896Z,19.90
2023-05-25T04:19:14.619Z,19.90
2023-05-25T04:21:41.254Z,19.90
2023-05-25T04:24:07.903Z,19.90
2023-05-25T04:26:34.532Z,19.80
2023-05-25T04:29:02.401Z,19.80
2023-05-25T04:31:29.209Z,19.80
2023-05-25T04:33:56.332Z,19.80
2023-05-25T04:36:23.458Z,19.80
2023-05-25T04:38:52.241Z,19.80
2023-05-25T04:41:19.064Z,19.80
2023-05-25T04:43:56.782Z,19.80
2023-05-25T04:46:32.375Z,19.80
2023-05-25T04:48:59.114Z,19.80
2023-05-25T04:51:25.876Z,19.90
2023-05-25T04:53:52.517Z,19.90
2023-05-25T04:56:19.173Z,19.90
2023-05-25T04:58:45.969Z,20.00
2023-05-25T05:01:12.718Z,19.90
2023-05-25T05:03:40.435Z,19.90
2023-05-25T05:06:10.206Z,20.00
2023-05-25T05:08:37.146Z,19.90
2023-05-25T05:11:03.871Z,20.40
2023-05-25T05:13:30.505Z,19.90
2023-05-25T05:15:57.224Z,19.90
2023-05-25T05:18:23.838Z,19.90
2023-05-25T05:20:50.622Z,19.80
2023-05-25T05:23:17.531Z,19.80
2023-05-25T05:25:44.693Z,19.80
2023-05-25T05:28:11.572Z,19.80
2023-05-25T05:30:38.338Z,19.80
2023-05-25T05:33:04.993Z,19.90
2023-05-25T05:35:31.692Z,19.90
2023-05-25T05:37:58.308Z,19.90
2023-05-25T05:40:26.638Z,20.00
2023-05-25T05:42:53.238Z,19.90
2023-05-25T05:45:19.833Z,19.90
2023-05-25T05:47:46.745Z,19.90
2023-05-25T05:50:13.434Z,19.80
2023-05-25T05:52:40.074Z,19.90
2023-05-25T05:55:06.782Z,19.90
2023-05-25T05:57:33.421Z,19.80
2023-05-25T06:00:00.061Z,19.80
2023-05-25T06:02:26.862Z,19.80
2023-05-25T06:04:53.522Z,19.80
2023-05-25T06:07:20.774Z,19.90
2023-05-25T06:09:47.436Z,19.90
2023-05-25T06:12:14.190Z,19.90
2023-05-25T06:14:40.988Z,19.90
2023-05-25T06:17:07.877Z,19.90
2023-05-25T06:19:34.610Z,20.00
2023-05-25T06:22:01.352Z,19.90
2023-05-25T06:24:27.975Z,20.10
2023-05-25T06:26:54.614Z,19.90
2023-05-25T06:29:21.612Z,19.90
2023-05-25T06:31:48.298Z,19.90
2023-05-25T06:34:14.932Z,20.00
2023-05-25T06:36:42.021Z,19.90
2023-05-25T06:39:08.685Z,20.10
2023-05-25T06:41:36.046Z,20.00
2023-05-25T06:44:04.050Z,19.90
2023-05-25T06:46:31.878Z,19.80
2023-05-25T06:48:59.773Z,20.40
2023-05-25T06:51:27.535Z,19.90
2023-05-25T06:53:57.158Z,20.00
2023-05-25T06:56:24.039Z,20.00
2023-05-25T06:58:51.453Z,20.10
2023-05-25T07:01:18.082Z,20.10
2023-05-25T07:03:44.784Z,20.20
2023-05-25T07:06:12.263Z,20.40
2023-05-25T07:08:38.978Z,20.30
2023-05-25T07:11:05.756Z,20.30
2023-05-25T07:13:32.372Z,20.30
2023-05-25T07:15:58.997Z,20.40
2023-05-25T07:18:26.302Z,20.40
2023-05-25T07:20:53.456Z,20.40
2023-05-25T07:23:20.144Z,20.40
2023-05-25T07:25:46.953Z,20.40
2023-05-25T07:28:13.771Z,20.40
2023-05-25T07:30:41.093Z,20.40
2023-05-25T07:33:07.834Z,20.30
2023-05-25T07:35:35.489Z,20.30
2023-05-25T07:38:04.389Z,20.20
2023-05-25T07:40:31.054Z,20.20
2023-05-25T07:42:58.021Z,20.10
2023-05-25T07:45:24.641Z,20.20
2023-05-25T07:47:51.590Z,20.20
2023-05-25T07:50:18.318Z,20.20
2023-05-25T07:52:44.981Z,20.20
2023-05-25T07:55:11.895Z,20.20
2023-05-25T07:57:38.578Z,20.20
2023-05-25T08:00:07.781Z,20.20
2023-05-25T08:02:34.508Z,20.20
2023-05-25T08:05:05.442Z,20.30
2023-05-25T08:07:32.901Z,20.10
2023-05-25T08:09:59.917Z,20.20
2023-05-25T08:12:46.016Z,20.10
2023-05-25T08:15:13.624Z,20.20
2023-05-25T08:17:40.697Z,20.10
2023-05-25T08:20:08.701Z,20.00
2023-05-25T08:22:36.043Z,20.00
2023-05-25T08:25:03.777Z,20.00
2023-05-25T08:27:31.693Z,20.00
2023-05-25T08:29:59.482Z,20.00
2023-05-25T08:32:26.269Z,20.00
2023-05-25T08:34:53.099Z,20.00
2023-05-25T08:37:22.565Z,20.10
2023-05-25T08:39:49.207Z,20.20
2023-05-25T08:42:15.892Z,20.10
2023-05-25T08:44:42.757Z,20.10
2023-05-25T08:47:11.258Z,20.10
2023-05-25T08:49:38.741Z,20.10
2023-05-25T08:52:06.784Z,20.00
2023-05-25T08:54:37.464Z,20.10
2023-05-25T08:57:33.528Z,20.10
2023-05-25T09:00:07.266Z,20.10
2023-05-25T09:02:43.053Z,20.00
2023-05-25T09:05:09.879Z,20.00
2023-05-25T09:07:36.537Z,20.00
2023-05-25T09:10:03.661Z,20.10
2023-05-25T09:12:30.784Z,20.00
2023-05-25T09:14:58.025Z,20.00
2023-05-25T09:17:24.687Z,20.00
2023-05-25T09:19:51.482Z,19.90
2023-05-25T09:22:18.181Z,20.00
2023-05-25T09:24:45.356Z,20.10
2023-05-25T09:27:13.013Z,20.10
2023-05-25T09:29:39.678Z,20.10
2023-05-25T09:32:06.797Z,20.40
2023-05-25T09:34:36.811Z,20.10
2023-05-25T09:37:04.372Z,20.10
2023-05-25T09:39:31.279Z,20.10
2023-05-25T09:41:58.035Z,20.20
2023-05-25T09:44:24.650Z,20.00
2023-05-25T09:46:51.328Z,20.00
2023-05-25T09:49:19.804Z,20.10
2023-05-25T09:51:47.587Z,20.10
2023-05-25T09:54:14.411Z,20.10
2023-05-25T09:56:41.304Z,20.10
2023-05-25T09:59:07.981Z,20.10
2023-05-25T10:01:34.665Z,20.30
2023-05-25T10:04:04.677Z,20.10
2023-05-25T10:06:33.342Z,20.00
2023-05-25T10:09:00.750Z,20.00
2023-05-25T10:11:27.715Z,20.00
2023-05-25T10:13:55.292Z,20.00
2023-05-25T10:16:26.034Z,20.00
2023-05-25T10:19:01.356Z,19.90
2023-05-25T10:21:29.387Z,20.00
2023-05-25T10:24:00.886Z,20.00
2023-05-25T10:26:27.842Z,20.10
2023-05-25T10:28:56.850Z,20.20
2023-05-25T10:31:28.146Z,20.30
2023-05-25T10:33:55.864Z,20.20
2023-05-25T10:36:23.105Z,20.30
2023-05-25T10:38:51.449Z,20.30
2023-05-25T10:41:19.513Z,20.40
2023-05-25T10:43:46.653Z,20.40
2023-05-25T10:46:15.086Z,20.40
2023-05-25T10:48:49.138Z,20.40
2023-05-25T10:51:18.838Z,20.30
2023-05-25T10:53:46.275Z,20.30
2023-05-25T10:56:13.433Z,20.50
2023-05-25T10:58:46.735Z,20.30
2023-05-25T11:01:15.310Z,20.20
2023-05-25T11:03:45.672Z,20.20
2023-05-25T11:06:13.808Z,20.20
2023-05-25T11:08:52.667Z,20.50
2023-05-25T11:11:19.368Z,20.20
2023-05-25T11:13:46.809Z,20.20
2023-05-25T11:16:14.883Z,20.20
2023-05-25T11:18:41.769Z,20.30
2023-05-25T11:21:40.815Z,20.20
2023-05-25T11:24:14.524Z,20.20
2023-05-25T11:26:55.705Z,20.20
2023-05-25T11:29:22.563Z,20.20
2023-05-25T11:31:54.250Z,20.20
2023-05-25T11:34:27.537Z,20.40
2023-05-25T11:37:03.891Z,19.70
2023-05-25T11:39:49.729Z,20.10
2023-05-25T11:42:16.940Z,20.10
2023-05-25T11:45:00.176Z,20.10
2023-05-25T11:47:30.175Z,19.80
2023-05-25T11:49:58.409Z,20.20
2023-05-25T11:52:25.033Z,19.90
2023-05-25T11:54:53.124Z,20.00
2023-05-25T11:57:26.784Z,20.00
2023-05-25T11:59:54.247Z,20.00
2023-05-25T12:02:21.751Z,20.10
2023-05-25T12:05:01.340Z,19.90
2023-05-25T12:07:31.822Z,19.90
2023-05-25T12:10:05.356Z,19.90
2023-05-25T12:12:37.731Z,19.90
2023-05-25T12:15:04.508Z,19.90
2023-05-25T12:17:31.280Z,19.90
2023-05-25T12:19:57.983Z,19.90
2023-05-25T12:22:24.688Z,19.90
2023-05-25T12:24:51.310Z,20.10
2023-05-25T12:27:18.628Z,20.00
2023-05-25T12:29:45.860Z,19.80
2023-05-25T12:32:12.511Z,19.90
2023-05-25T12:34:39.092Z,19.90
2023-05-25T12:37:06.022Z,19.90
2023-05-25T12:39:32.630Z,20.20
2023-05-25T12:42:00.029Z,19.90
2023-05-25T12:44:28.791Z,19.80
2023-05-25T12:46:56.165Z,19.90
2023-05-25T12:49:32.569Z,19.90
2023-05-25T12:51:59.712Z,19.80
2023-05-25T12:54:36.062Z,19.90
2023-05-25T12:57:03.657Z,19.80
2023-05-25T12:59:31.272Z,19.80
2023-05-25T13:01:58.088Z,19.80
2023-05-25T13:04:24.796Z,19.80
2023-05-25T13:06:51.895Z,19.80
2023-05-25T13:09:18.540Z,19.80
2023-05-25T13:11:45.153Z,19.80
2023-05-25T13:14:11.766Z,19.80
2023-05-25T13:16:38.463Z,19.70
2023-05-25T13:19:05.104Z,19.80
2023-05-25T13:21:32.814Z,19.80
2023-05-25T13:23:59.462Z,19.80
2023-05-25T13:26:26.375Z,19.80
2023-05-25T13:28:52.982Z,19.80
2023-05-25T13:31:19.668Z,19.70
2023-05-25T13:33:46.269Z,19.80
2023-05-25T13:36:13.135Z,19.70
2023-05-25T13:38:39.720Z,19.70
2023-05-25T13:41:06.378Z,19.80
2023-05-25T13:43:33.034Z,19.80
2023-05-25T13:45:59.672Z,19.80
2023-05-25T13:48:26.878Z,19.90
2023-05-25T13:50:53.628Z,19.90
2023-05-25T13:53:20.249Z,19.90
2023-05-25T13:55:46.969Z,19.90
2023-05-25T13:58:13.631Z,19.90
2023-05-25T14:00:40.410Z,19.90
2023-05-25T14:03:07.183Z,20.00
2023-05-25T14:05:34.029Z,20.00
2023-05-25T14:08:03.213Z,20.00
2023-05-25T14:10:30.086Z,20.00
2023-05-25T14:12:56.707Z,20.00
2023-05-25T14:15:23.404Z,20.00
2023-05-25T14:17:50.101Z,20.00
2023-05-25T14:20:22.372Z,20.00
2023-05-25T14:22:49.030Z,20.00
2023-05-25T14:25:15.694Z,20.00
2023-05-25T14:27:42.312Z,20.00
2023-05-25T14:30:09.160Z,20.00
2023-05-25T14:32:35.818Z,20.00
2023-05-25T14:35:02.559Z,20.10
2023-05-25T14:37:29.162Z,20.10
2023-05-25T14:39:56.107Z,20.20
2023-05-25T14:42:22.705Z,20.10
2023-05-25T14:44:49.312Z,20.20
2023-05-25T14:47:16.066Z,20.30
2023-05-25T14:49:42.748Z,20.30
2023-05-25T14:52:09.373Z,20.30
2023-05-25T14:54:36.076Z,20.30
2023-05-25T14:57:02.728Z,20.30
2023-05-25T14:59:29.404Z,20.40
2023-05-25T15:01:56.158Z,20.40
2023-05-25T15:04:22.976Z,20.40
2023-05-25T15:06:49.645Z,20.40
2023-05-25T15:09:19.161Z,20.40
2023-05-25T15:11:46.020Z,20.40
2023-05-25T15:14:12.635Z,20.40
2023-05-25T15:16:39.321Z,20.40
2023-05-25T15:19:05.979Z,20.40
2023-05-25T15:21:32.594Z,20.40
2023-05-25T15:23:59.185Z,20.60
2023-05-25T15:26:26.413Z,20.40
2023-05-25T15:28:53.236Z,20.30
2023-05-25T15:31:19.993Z,20.30
2023-05-25T15:33:54.270Z,20.40
2023-05-25T15:36:24.723Z,20.30
2023-05-25T15:38:51.368Z,20.30
2023-05-25T15:41:17.997Z,20.30
2023-05-25T15:43:58.098Z,20.30
2023-05-25T15:46:25.182Z,20.30
2023-05-25T15:48:51.881Z,20.30
2023-05-25T15:51:18.594Z,20.30
2023-05-25T15:53:45.982Z,20.30
2023-05-25T15:56:12.678Z,20.30
2023-05-25T15:58:39.311Z,20.30
2023-05-25T16:01:06.117Z,20.20
2023-05-25T16:03:32.843Z,20.20
2023-05-25T16:05:59.526Z,20.20
2023-05-25T16:08:26.132Z,20.20
2023-05-25T16:10:52.735Z,20.20
2023-05-25T16:13:19.363Z,20.20
2023-05-25T16:15:46.600Z,20.20
2023-05-25T16:18:13.383Z,20.20
2023-05-25T16:20:40.055Z,20.50
2023-05-25T16:23:06.727Z,20.20
2023-05-25T16:25:33.349Z,20.20
2023-05-25T16:27:59.938Z,20.10
2023-05-25T16:30:26.532Z,20.20
2023-05-25T16:32:53.167Z,20.20
2023-05-25T16:35:20.068Z,20.10
2023-05-25T16:37:46.764Z,20.10
2023-05-25T16:40:13.398Z,20.10
2023-05-25T16:42:40.009Z,20.10
2023-05-25T16:45:06.878Z,20.10
2023-05-25T16:47:33.552Z,20.10
2023-05-25T16:50:00.192Z,20.10
2023-05-25T16:52:26.909Z,20.10
2023-05-25T16:54:53.559Z,20.30
2023-05-25T16:57:20.325Z,20.10
2023-05-25T16:59:46.942Z,20.10
2023-05-25T17:02:13.570Z,20.60
2023-05-25T17:04:40.164Z,20.10
2023-05-25T17:07:06.743Z,20.10
2023-05-25T17:09:33.417Z,19.40
2023-05-25T17:12:01.607Z,20.50
2023-05-25T17:14:28.359Z,20.20
2023-05-25T17:16:55.170Z,20.10
2023-05-25T17:19:21.821Z,20.10
2023-05-25T17:21:48.486Z,20.00
2023-05-25T17:24:15.139Z,20.10
2023-05-25T17:26:41.762Z,20.00
2023-05-25T17:29:08.389Z,20.00
2023-05-25T17:31:35.046Z,20.50
2023-05-25T17:34:01.899Z,20.00
2023-05-25T17:36:28.521Z,20.00
2023-05-25T17:38:55.222Z,20.00
2023-05-25T17:41:22.811Z,20.00
2023-05-25T17:43:49.511Z,20.00
2023-05-25T17:46:16.586Z,20.00
2023-05-25T17:48:43.281Z,20.10
2023-05-25T17:51:10.033Z,20.20
2023-05-25T17:53:37.476Z,20.20
2023-05-25T17:56:04.230Z,20.30
2023-05-25T17:58:30.854Z,20.30
2023-05-25T18:00:57.555Z,20.50
2023-05-25T18:03:25.862Z,20.40
2023-05-25T18:05:52.587Z,20.40
2023-05-25T18:08:19.281Z,20.40
2023-05-25T18:10:45.951Z,20.40
2023-05-25T18:13:12.642Z,20.40
2023-05-25T18:15:39.247Z,20.40
2023-05-25T18:18:07.209Z,20.50
2023-05-25T18:20:34.569Z,20.50
2023-05-25T18:23:01.336Z,20.50
2023-05-25T18:25:27.977Z,20.50
2023-05-25T18:27:54.589Z,20.40
2023-05-25T18:30:21.173Z,20.30
2023-05-25T18:32:47.878Z,20.40
2023-05-25T18:35:14.510Z,20.40
2023-05-25T18:37:41.271Z,20.40
2023-05-25T18:40:08.313Z,20.50
2023-05-25T18:42:34.948Z,20.40
2023-05-25T18:45:01.657Z,20.40
2023-05-25T18:47:28.428Z,20.40
2023-05-25T18:49:55.177Z,20.40
2023-05-25T18:52:22.391Z,20.50
2023-05-25T18:54:49.639Z,20.40
2023-05-25T18:57:16.346Z,20.40
2023-05-25T18:59:43.242Z,20.40
2023-05-25T19:02:09.968Z,20.40
2023-05-25T19:04:37.623Z,20.30
2023-05-25T19:07:04.312Z,20.30
2023-05-25T19:09:30.941Z,20.30
2023-05-25T19:11:57.545Z,20.30
2023-05-25T19:14:24.158Z,20.30
2023-05-25T19:16:50.842Z,20.20
2023-05-25T19:19:17.729Z,20.20
2023-05-25T19:21:46.606Z,20.30
2023-05-25T19:24:13.274Z,20.20
2023-05-25T19:26:39.928Z,20.20
2023-05-25T19:29:06.904Z,20.20
2023-05-25T19:31:33.665Z,20.20
2023-05-25T19:34:00.328Z,20.20
2023-05-25T19:36:27.314Z,20.20
2023-05-25T19:38:53.927Z,20.20
2023-05-25T19:41:21.229Z,20.30
2023-05-25T19:43:47.829Z,20.20
2023-05-25T19:46:14.465Z,20.20
2023-05-25T19:48:41.587Z,20.30
2023-05-25T19:51:08.456Z,20.20
2023-05-25T19:53:35.096Z,20.10
2023-05-25T19:56:03.232Z,20.10
2023-05-25T19:58:29.861Z,20.10
2023-05-25T20:00:56.616Z,20.10
2023-05-25T20:03:23.368Z,20.10
2023-05-25T20:05:50.072Z,20.00
2023-05-25T20:08:16.868Z,20.10
2023-05-25T20:10:44.849Z,20.10
2023-05-25T20:13:12.508Z,20.10
2023-05-25T20:15:39.198Z,20.20
2023-05-25T20:18:05.934Z,20.10
2023-05-25T20:20:32.587Z,20.10
2023-05-25T20:22:59.235Z,20.10
2023-05-25T20:25:26.086Z,20.10
2023-05-25T20:27:52.745Z,20.10
2023-05-25T20:30:19.749Z,20.10
2023-05-25T20:32:46.499Z,20.10
2023-05-25T20:35:13.388Z,20.10
2023-05-25T20:37:39.982Z,20.10
2023-05-25T20:40:06.970Z,20.20
2023-05-25T20:42:33.652Z,20.10
2023-05-25T20:45:00.302Z,20.10
2023-05-25T20:47:27.023Z,20.10
2023-05-25T20:49:53.660Z,20.00
2023-05-25T20:52:21.164Z,20.00
2023-05-25T20:54:48.180Z,20.40
2023-05-25T20:57:15.066Z,20.00
2023-05-25T20:59:41.692Z,20.10
2023-05-25T21:02:08.548Z,20.10
2023-05-25T21:04:35.193Z,20.10
2023-05-25T21:07:01.856Z,20.10
2023-05-25T21:09:28.468Z,20.10
2023-05-25T21:11:55.664Z,20.10
2023-05-25T21:14:22.269Z,20.10
2023-05-25T21:16:50.037Z,20.00
2023-05-25T21:19:17.143Z,20.00
2023-05-25T21:21:43.916Z,20.00
2023-05-25T21:24:10.589Z,20.00
2023-05-25T21:26:37.285Z,20.10
2023-05-25T21:29:04.013Z,20.10
2023-05-25T21:31:30.642Z,20.20
2023-05-25T21:33:58.808Z,20.20
2023-05-25T21:36:26.506Z,20.30
2023-05-25T21:38:53.106Z,20.30
2023-05-25T21:41:20.199Z,20.40
2023-05-25T21:43:46.795Z,20.40
2023-05-25T21:46:13.392Z,20.40
2023-05-25T21:48:39.976Z,20.40
2023-05-25T21:51:06.599Z,20.40
2023-05-25T21:53:33.586Z,20.40
2023-05-25T21:56:00.225Z,20.40
2023-05-25T21:58:26.824Z,20.40
2023-05-25T22:00:53.448Z,20.40
2023-05-25T22:03:20.271Z,20.30
2023-05-25T22:05:46.988Z,20.30
2023-05-25T22:08:13.807Z,20.60
2023-05-25T22:10:40.482Z,20.30
2023-05-25T22:13:07.243Z,20.20
2023-05-25T22:15:34.176Z,20.20
2023-05-25T22:18:01.565Z,20.20
2023-05-25T22:20:28.326Z,20.20
2023-05-25T22:22:54.960Z,20.30
2023-05-25T22:25:21.541Z,20.20
2023-05-25T22:27:48.434Z,20.20
2023-05-25T22:30:15.094Z,20.10
2023-05-25T22:32:41.826Z,20.10
2023-05-25T22:35:08.554Z,20.10
2023-05-25T22:37:35.508Z,20.10
2023-05-25T22:40:02.117Z,20.00
2023-05-25T22:42:28.747Z,20.20
2023-05-25T22:44:55.441Z,20.10
2023-05-25T22:47:22.091Z,20.20
2023-05-25T22:49:48.785Z,20.10
2023-05-25T22:52:15.528Z,20.10
2023-05-25T22:54:42.122Z,20.10
2023-05-25T22:57:09.638Z,20.10
2023-05-25T22:59:36.483Z,20.10
2023-05-25T23:02:03.229Z,20.10
2023-05-25T23:04:29.884Z,20.10
2023-05-25T23:06:56.540Z,20.00
2023-05-25T23:09:23.168Z,20.00
2023-05-25T23:11:52.283Z,20.00
2023-05-25T23:14:20.642Z,20.00
2023-05-25T23:16:48.659Z,20.00
2023-05-25T23:19:16.754Z,20.00
2023-05-25T23:21:43.724Z,20.00
2023-05-25T23:24:10.422Z,20.30
2023-05-25T23:26:37.027Z,20.00
2023-05-25T23:29:03.763Z,20.50
2023-05-25T23:31:30.523Z,20.00
2023-05-25T23:33:57.233Z,20.00
2023-05-25T23:36:26.087Z,20.10
2023-05-25T23:38:52.980Z,20.10
2023-05-25T23:41:19.987Z,20.10
2023-05-25T23:43:46.693Z,20.10
2023-05-25T23:46:17.259Z,20.10
2023-05-25T23:48:44.821Z,20.40
2023-05-25T23:51:11.633Z,20.10
2023-05-25T23:53:38.858Z,20.10
2023-05-25T23:56:05.541Z,20.10
2023-05-25T23:58:32.170Z,20.00
